createdAt,value
2022-09-07T00:02:05.330Z,101304.22
2022-09-07T00:04:31.997Z,101301.22
2022-09-07T00:06:58.781Z,101308.78
2022-09-07T00:09:25.679Z,101315.53
2022-09-07T00:11:52.393Z,101308.75
2022-09-07T00:14:19.104Z,101308.28
2022-09-07T00:16:47.333Z,101307.81
2022-09-07T00:19:14.088Z,101299.34
2022-09-07T00:21:41.094Z,101300.56
2022-09-07T00:24:07.827Z,101296.69
2022-09-07T00:26:34.442Z,101295.63
2022-09-07T00:29:03.490Z,101300.81
2022-09-07T00:31:31.390Z,101305.84
2022-09-07T00:34:01.457Z,101299.25
2022-09-07T00:36:28.649Z,101295.19
2022-09-07T00:38:55.376Z,101290.28
2022-09-07T00:41:22.223Z,101281.63
2022-09-07T00:43:50.957Z,101286.81
2022-09-07T00:46:19.595Z,101288.03
2022-09-07T00:48:51.477Z,101284.81
2022-09-07T00:51:24.608Z,101286.25
2022-09-07T00:53:55.027Z,101289.56
2022-09-07T00:56:24.181Z,101282.59
2022-09-07T00:58:51.539Z,101293.09
2022-09-07T01:01:18.526Z,101295.34
2022-09-07T01:03:48.733Z,101279.09
2022-09-07T01:06:17.982Z,101276.94
2022-09-07T01:08:49.034Z,101276.47
2022-09-07T01:11:16.763Z,101275.16
2022-09-07T01:13:45.911Z,101273.84
2022-09-07T01:16:20.974Z,101273.34
2022-09-07T01:18:56.594Z,101275.63
2022-09-07T01:21:27.099Z,101258.06
2022-09-07T01:24:35.435Z,101254.00
2022-09-07T01:27:39.784Z,101252.69
2022-09-07T01:30:08.752Z,101260.84
2022-09-07T01:32:49.973Z,101261.00
2022-09-07T01:35:22.799Z,101260.38
2022-09-07T01:37:57.192Z,101259.06
2022-09-07T01:40:33.067Z,101252.91
2022-09-07T01:43:03.081Z,101264.41
2022-09-07T01:45:34.822Z,101266.50
2022-09-07T01:48:06.777Z,101261.59
2022-09-07T01:50:39.236Z,101260.28
2022-09-07T01:53:11.093Z,101268.84
2022-09-07T01:55:42.976Z,101267.31
2022-09-07T01:58:14.711Z,101265.78
2022-09-07T02:00:48.263Z,101262.41
2022-09-07T02:03:18.376Z,101257.31
2022-09-07T02:05:50.851Z,101261.41
2022-09-07T02:08:24.243Z,101254.84
2022-09-07T02:10:54.653Z,101259.16
2022-09-07T02:13:24.182Z,101255.56
2022-09-07T02:15:58.084Z,101263.78
2022-09-07T02:18:28.159Z,101258.47
2022-09-07T02:20:57.981Z,101252.34
2022-09-07T02:23:28.757Z,101250.47
2022-09-07T02:26:01.163Z,101247.91
2022-09-07T02:28:30.759Z,101252.53
2022-09-07T02:30:59.598Z,101250.00
2022-09-07T02:33:27.061Z,101249.50
2022-09-07T02:35:54.005Z,101242.53
2022-09-07T02:38:21.129Z,101239.97
2022-09-07T02:40:50.849Z,101240.53
2022-09-07T02:43:17.654Z,101247.06
2022-09-07T02:45:59.043Z,101243.63
2022-09-07T02:48:34.752Z,101252.22
2022-09-07T02:51:12.423Z,101257.00
2022-09-07T02:54:14.731Z,101258.06
2022-09-07T02:56:52.571Z,101254.66
2022-09-07T02:59:35.135Z,101251.25
2022-09-07T03:02:09.769Z,101250.59
2022-09-07T03:04:45.489Z,101249.06
2022-09-07T03:07:16.127Z,101249.25
2022-09-07T03:09:47.035Z,101241.22
2022-09-07T03:12:14.336Z,101234.91
2022-09-07T03:14:42.702Z,101242.47
2022-09-07T03:17:10.224Z,101248.94
2022-09-07T03:19:38.317Z,101255.44
2022-09-07T03:22:05.506Z,101254.97
2022-09-07T03:24:32.179Z,101246.28
2022-09-07T03:26:59.357Z,101243.94
2022-09-07T03:29:26.026Z,101237.09
2022-09-07T03:31:52.734Z,101239.34
2022-09-07T03:34:19.328Z,101229.81
2022-09-07T03:36:47.401Z,101221.16
2022-09-07T03:39:13.973Z,101223.22
2022-09-07T03:41:40.894Z,101218.31
2022-09-07T03:44:08.127Z,101214.00
2022-09-07T03:46:35.271Z,101220.69
2022-09-07T03:49:02.134Z,101205.69
2022-09-07T03:51:28.899Z,101209.63
2022-09-07T03:53:57.039Z,101207.91
2022-09-07T03:56:24.860Z,101204.53
2022-09-07T03:58:53.921Z,101199.06
2022-09-07T04:01:22.187Z,101191.91
2022-09-07T04:03:49.074Z,101188.53
2022-09-07T04:06:16.674Z,101186.13
2022-09-07T04:08:43.786Z,101190.25
2022-09-07T04:11:14.344Z,101193.38
2022-09-07T04:13:41.769Z,101196.25
2022-09-07T04:16:13.888Z,101190.31
2022-09-07T04:18:40.822Z,101192.41
2022-09-07T04:21:07.979Z,101193.41
2022-09-07T04:23:34.638Z,101200.75
2022-09-07T04:26:01.313Z,101193.78
2022-09-07T04:28:29.452Z,101197.53
2022-09-07T04:31:00.282Z,101201.28
2022-09-07T04:33:27.141Z,101208.78
2022-09-07T04:35:53.830Z,101202.69
2022-09-07T04:38:20.416Z,101196.53
2022-09-07T04:40:47.116Z,101196.75
2022-09-07T04:43:13.737Z,101197.06
2022-09-07T04:45:41.984Z,101197.94
2022-09-07T04:48:08.653Z,101187.88
2022-09-07T04:50:35.461Z,101185.13
2022-09-07T04:53:02.225Z,101183.25
2022-09-07T04:55:28.881Z,101185.81
2022-09-07T04:57:55.537Z,101182.88
2022-09-07T05:00:22.261Z,101187.16
2022-09-07T05:02:50.414Z,101185.28
2022-09-07T05:05:17.222Z,101188.66
2022-09-07T05:07:44.059Z,101178.44
2022-09-07T05:10:10.991Z,101181.81
2022-09-07T05:12:38.063Z,101186.94
2022-09-07T05:15:05.776Z,101180.25
2022-09-07T05:17:32.500Z,101188.06
2022-09-07T05:20:00.664Z,101178.69
2022-09-07T05:22:27.501Z,101173.88
2022-09-07T05:24:54.225Z,101169.56
2022-09-07T05:27:21.176Z,101161.84
2022-09-07T05:30:04.467Z,101174.81
2022-09-07T05:32:32.544Z,101178.50
2022-09-07T05:35:00.647Z,101178.81
2022-09-07T05:37:27.243Z,101175.53
2022-09-07T05:39:53.994Z,101183.03
2022-09-07T05:42:20.691Z,101185.00
2022-09-07T05:44:47.464Z,101181.72
2022-09-07T05:47:14.382Z,101181.84
2022-09-07T05:49:41.107Z,101185.53
2022-09-07T05:52:09.446Z,101175.75
2022-09-07T05:54:36.114Z,101178.78
2022-09-07T05:57:02.801Z,101170.81
2022-09-07T05:59:29.438Z,101171.81
2022-09-07T06:01:56.255Z,101177.19
2022-09-07T06:04:22.988Z,101180.50
2022-09-07T06:07:17.599Z,101175.97
2022-09-07T06:12:25.060Z,101171.53
2022-09-07T06:14:51.751Z,101174.56
2022-09-07T06:17:18.467Z,101173.63
2022-09-07T06:19:45.089Z,101171.81
2022-09-07T06:22:11.762Z,101165.59
2022-09-07T06:24:39.879Z,101168.19
2022-09-07T06:27:06.562Z,101170.81
2022-09-07T06:29:33.176Z,101170.06
2022-09-07T06:34:46.525Z,101165.38
2022-09-07T06:37:13.162Z,101168.56
2022-09-07T06:39:41.354Z,101171.78
2022-09-07T06:42:08.380Z,101170.72
2022-09-07T06:44:35.065Z,101155.34
2022-09-07T06:49:28.668Z,101147.59
2022-09-07T06:51:55.460Z,101157.31
2022-09-07T06:57:10.198Z,101148.94
2022-09-07T06:59:37.771Z,101150.66
2022-09-07T07:02:05.393Z,101141.78
2022-09-07T07:04:35.132Z,101144.31
2022-09-07T07:07:04.729Z,101152.34
2022-09-07T07:09:31.868Z,101144.75
2022-09-07T07:11:58.636Z,101149.03
2022-09-07T07:14:27.477Z,101139.38
2022-09-07T07:16:55.716Z,101141.16
2022-09-07T07:19:22.424Z,101140.81
2022-09-07T07:22:10.846Z,101140.84
2022-09-07T07:24:36.016Z,101144.78
2022-09-07T07:27:02.678Z,101150.75
2022-09-07T07:29:30.860Z,101156.53
2022-09-07T07:31:57.589Z,101161.47
2022-09-07T07:34:24.590Z,101150.13
2022-09-07T07:36:51.273Z,101162.84
2022-09-07T07:42:05.892Z,101154.84
2022-09-07T07:44:34.595Z,101148.13
2022-09-07T07:47:01.401Z,101149.19
2022-09-07T07:49:28.008Z,101143.44
2022-09-07T07:54:41.680Z,101134.53
2022-09-07T07:57:08.954Z,101130.56
2022-09-07T07:59:36.998Z,101139.06
2022-09-07T08:02:04.419Z,101140.13
2022-09-07T08:04:32.903Z,101149.28
2022-09-07T08:06:59.842Z,101149.06
2022-09-07T08:09:26.479Z,101149.47
2022-09-07T08:11:53.090Z,101150.56
2022-09-07T08:14:19.732Z,101138.56
2022-09-07T08:16:48.007Z,101132.25
2022-09-07T08:19:14.740Z,101130.38
2022-09-07T08:21:41.323Z,101127.47
2022-09-07T08:24:08.250Z,101127.66
2022-09-07T08:26:34.840Z,101140.41
2022-09-07T08:29:01.448Z,101139.34
2022-09-07T08:31:28.329Z,101126.47
2022-09-07T08:33:56.480Z,101126.28
2022-09-07T08:36:23.096Z,101126.50
2022-09-07T08:38:49.615Z,101132.22
2022-09-07T08:41:33.255Z,101117.66
2022-09-07T08:44:02.949Z,101122.53
2022-09-07T08:46:36.061Z,101119.56
2022-09-07T08:49:06.442Z,101118.91
2022-09-07T08:51:38.795Z,101110.03
2022-09-07T08:54:06.036Z,101117.66
2022-09-07T08:56:37.972Z,101114.25
2022-09-07T08:59:14.308Z,101104.13
2022-09-07T09:02:26.243Z,101112.16
2022-09-07T09:04:32.249Z,101113.63
2022-09-07T09:07:08.758Z,101109.56
2022-09-07T09:09:47.390Z,101116.78
2022-09-07T09:12:21.155Z,101119.75
2022-09-07T09:15:02.969Z,101109.13
2022-09-07T09:17:35.479Z,101106.13
2022-09-07T09:20:16.818Z,101097.63
2022-09-07T09:22:44.467Z,101098.44
2022-09-07T09:25:18.815Z,101097.59
2022-09-07T09:27:45.971Z,101100.75
2022-09-07T09:30:14.458Z,101096.72
2022-09-07T09:32:42.308Z,101099.63
2022-09-07T09:35:16.708Z,101099.81
2022-09-07T09:37:43.931Z,101101.91
2022-09-07T09:40:23.733Z,101099.78
2022-09-07T09:42:59.895Z,101080.41
2022-09-07T09:45:29.034Z,101084.41
2022-09-07T09:47:57.502Z,101081.38
2022-09-07T09:53:25.314Z,101074.63
2022-09-07T09:55:53.861Z,101073.28
2022-09-07T10:01:24.424Z,101064.03
2022-09-07T10:03:55.362Z,101058.66
2022-09-07T10:06:24.298Z,101061.97
2022-09-07T10:08:56.291Z,101060.84
2022-09-07T10:14:29.440Z,101064.53
2022-09-07T10:16:56.961Z,101060.69
2022-09-07T10:19:29.807Z,101060.00
2022-09-07T10:21:59.307Z,101060.75
2022-09-07T10:24:27.181Z,101071.75
2022-09-07T10:26:54.504Z,101054.25
2022-09-07T10:29:29.694Z,101059.91
2022-09-07T10:32:08.304Z,101059.03
2022-09-07T10:34:47.930Z,101055.34
2022-09-07T10:37:25.578Z,101042.88
2022-09-07T10:40:03.951Z,101053.03
2022-09-07T10:42:34.263Z,101049.94
2022-09-07T10:45:10.052Z,101045.13
2022-09-07T10:47:47.002Z,101037.63
2022-09-07T10:50:24.577Z,101044.94
2022-09-07T10:53:18.321Z,101039.69
2022-09-07T10:56:00.273Z,101042.75
2022-09-07T11:01:34.995Z,101040.41
2022-09-07T11:04:24.846Z,101037.28
2022-09-07T11:07:01.372Z,101037.31
2022-09-07T11:09:44.289Z,101042.22
2022-09-07T11:12:16.611Z,101037.09
2022-09-07T11:14:50.292Z,101036.94
2022-09-07T11:17:20.875Z,101039.34
2022-09-07T11:19:53.539Z,101038.41
2022-09-07T11:22:35.911Z,101031.91
2022-09-07T11:25:31.083Z,101034.81
2022-09-07T11:28:01.845Z,101030.00
2022-09-07T11:30:31.586Z,101035.88
2022-09-07T11:33:10.975Z,101045.16
2022-09-07T11:35:44.658Z,101048.03
2022-09-07T11:38:18.077Z,101040.91
2022-09-07T11:40:56.184Z,101051.03
2022-09-07T11:43:27.306Z,101052.72
2022-09-07T11:45:58.158Z,101049.59
2022-09-07T11:48:30.947Z,101046.56
2022-09-07T11:51:01.864Z,101044.13
2022-09-07T11:53:32.924Z,101048.13
2022-09-07T11:56:04.644Z,101037.88
2022-09-07T11:58:51.056Z,101031.50
2022-09-07T12:01:30.593Z,101028.47
2022-09-07T12:04:15.611Z,101028.81
2022-09-07T12:07:17.400Z,101024.22
2022-09-07T12:10:06.456Z,101019.66
2022-09-07T12:13:25.594Z,101013.97
2022-09-07T12:15:59.385Z,101015.78
2022-09-07T12:18:42.807Z,101014.09
2022-09-07T12:21:31.686Z,101009.16
2022-09-07T12:23:58.357Z,101000.56
2022-09-07T12:26:49.288Z,101003.09
2022-09-07T12:29:25.709Z,101001.41
2022-09-07T12:31:58.728Z,101001.75
2022-09-07T12:34:54.984Z,100995.72
2022-09-07T12:37:43.476Z,100990.53
2022-09-07T12:40:48.221Z,100991.69
2022-09-07T12:43:35.269Z,100989.78
2022-09-07T12:46:03.788Z,100986.50
2022-09-07T12:48:46.341Z,100986.84
2022-09-07T12:54:19.427Z,100982.75
2022-09-07T12:59:59.674Z,100983.97
2022-09-07T13:02:59.902Z,100983.38
2022-09-07T13:05:43.510Z,100975.31
2022-09-07T13:08:27.959Z,100968.41
2022-09-07T13:10:55.314Z,100973.47
2022-09-07T13:16:30.158Z,100971.59
2022-09-07T13:19:02.554Z,100968.47
2022-09-07T13:21:36.466Z,100982.69
2022-09-07T13:24:55.235Z,100978.06
2022-09-07T13:27:44.469Z,100984.22
2022-09-07T13:30:25.092Z,100972.00
2022-09-07T13:33:30.538Z,100975.91
2022-09-07T13:36:02.318Z,100968.91
2022-09-07T13:38:31.260Z,100963.25
2022-09-07T13:41:06.285Z,100963.22
2022-09-07T13:43:34.978Z,100955.88
2022-09-07T13:46:08.077Z,100959.63
2022-09-07T13:48:38.341Z,100956.78
2022-09-07T13:51:15.189Z,100965.34
2022-09-07T13:53:53.814Z,100957.28
2022-09-07T13:56:37.835Z,100958.03
2022-09-07T13:59:17.264Z,100958.53
2022-09-07T14:01:47.495Z,100943.47
2022-09-07T14:04:22.805Z,100947.84
2022-09-07T14:06:51.051Z,100937.59
2022-09-07T14:09:22.355Z,100935.06
2022-09-07T14:11:50.561Z,100938.09
2022-09-07T14:14:21.539Z,100935.06
2022-09-07T14:16:53.283Z,100940.47
2022-09-07T14:19:24.352Z,100938.44
2022-09-07T14:22:01.337Z,100934.41
2022-09-07T14:24:31.038Z,100935.59
2022-09-07T14:26:58.683Z,100932.59
2022-09-07T14:29:28.347Z,100931.00
2022-09-07T14:35:19.135Z,100925.25
2022-09-07T14:41:21.624Z,100923.41
2022-09-07T14:43:52.971Z,100917.66
2022-09-07T14:46:23.548Z,100925.81
2022-09-07T14:48:53.399Z,100915.13
2022-09-07T14:51:32.756Z,100914.41
2022-09-07T14:54:05.365Z,100910.41
2022-09-07T14:56:39.146Z,100909.75
2022-09-07T14:59:20.670Z,100918.16
2022-09-07T15:01:47.900Z,100915.09
2022-09-07T15:04:18.561Z,100915.63
2022-09-07T15:07:01.310Z,100921.94
2022-09-07T15:09:34.934Z,100911.63
2022-09-07T15:12:05.066Z,100911.75
2022-09-07T15:14:31.987Z,100920.06
2022-09-07T15:19:47.871Z,100914.97
2022-09-07T15:22:14.780Z,100905.56
2022-09-07T15:24:41.683Z,100904.47
2022-09-07T15:27:20.469Z,100904.22
2022-09-07T15:29:47.379Z,100910.03
2022-09-07T15:32:16.695Z,100905.81
2022-09-07T15:34:44.895Z,100911.97
2022-09-07T15:39:58.716Z,100911.13
2022-09-07T15:45:14.508Z,100909.63
2022-09-07T15:47:47.240Z,100912.09
2022-09-07T15:50:17.292Z,100912.00
2022-09-07T15:52:46.449Z,100902.44
2022-09-07T15:55:17.098Z,100900.34
2022-09-07T15:57:54.487Z,100895.00
2022-09-07T16:00:23.875Z,100891.53
2022-09-07T16:03:07.874Z,100896.41
2022-09-07T16:05:35.498Z,100875.72
2022-09-07T16:10:54.440Z,100875.47
2022-09-07T16:13:24.594Z,100872.03
2022-09-07T16:15:51.810Z,100869.16
2022-09-07T16:18:19.096Z,100866.31
2022-09-07T16:20:47.223Z,100864.56
2022-09-07T16:23:16.245Z,100861.69
2022-09-07T16:25:55.121Z,100868.84
2022-09-07T16:28:23.669Z,100855.72
2022-09-07T16:30:50.454Z,100854.50
2022-09-07T16:33:17.363Z,100856.94
2022-09-07T16:35:44.135Z,100843.00
2022-09-07T16:40:58.225Z,100839.53
2022-09-07T16:43:27.205Z,100834.50
2022-09-07T16:46:03.267Z,100839.69
2022-09-07T16:48:31.083Z,100831.91
2022-09-07T16:51:02.040Z,100836.00
2022-09-07T16:53:30.375Z,100828.41
2022-09-07T16:56:00.865Z,100828.94
2022-09-07T16:58:38.132Z,100825.56
2022-09-07T17:01:06.318Z,100821.34
2022-09-07T17:03:33.590Z,100819.09
2022-09-07T17:06:01.625Z,100822.34
2022-09-07T17:08:28.909Z,100823.94
2022-09-07T17:10:59.065Z,100824.94
2022-09-07T17:13:25.812Z,100836.75
2022-09-07T17:15:54.121Z,100835.56
2022-09-07T17:19:28.805Z,100841.81
2022-09-07T17:21:07.828Z,100845.56
2022-09-07T17:23:44.134Z,100842.66
2022-09-07T17:26:16.635Z,100851.72
2022-09-07T17:28:45.448Z,100848.88
2022-09-07T17:32:23.735Z,100844.88
2022-09-07T17:34:02.330Z,100836.72
2022-09-07T17:36:30.191Z,100829.66
2022-09-07T17:39:14.982Z,100825.31
2022-09-07T17:41:43.733Z,100837.38
2022-09-07T17:44:10.915Z,100837.25
2022-09-07T17:46:39.569Z,100840.75
2022-09-07T17:49:06.488Z,100851.91
2022-09-07T17:51:33.220Z,100848.16
2022-09-07T17:54:02.027Z,100849.97
2022-09-07T17:56:29.685Z,100840.97
2022-09-07T18:00:10.597Z,100848.50
2022-09-07T18:01:44.698Z,100850.56
2022-09-07T18:04:16.900Z,100854.28
2022-09-07T18:06:43.855Z,100856.09
2022-09-07T18:09:11.426Z,100862.31
2022-09-07T18:11:46.663Z,100867.34
2022-09-07T18:14:15.406Z,100859.41
2022-09-07T18:16:45.616Z,100856.50
2022-09-07T18:19:13.093Z,100869.94
2022-09-07T18:21:41.928Z,100882.50
2022-09-07T18:24:13.606Z,100881.78
2022-09-07T18:26:40.996Z,100885.50
2022-09-07T18:29:25.838Z,100880.25
2022-09-07T18:31:54.955Z,100883.34
2022-09-07T18:34:22.136Z,100884.31
2022-09-07T18:36:49.446Z,100891.38
2022-09-07T18:39:16.407Z,100898.41
2022-09-07T18:41:43.212Z,100913.53
2022-09-07T18:46:58.102Z,100915.16
2022-09-07T18:49:25.201Z,100914.75
2022-09-07T18:54:39.149Z,100906.16
2022-09-07T18:57:07.007Z,100917.03
2022-09-07T18:59:34.200Z,100908.59
2022-09-07T19:02:04.797Z,100913.09
2022-09-07T19:07:19.982Z,100920.44
2022-09-07T19:09:46.685Z,100924.09
2022-09-07T19:12:13.495Z,100917.38
2022-09-07T19:14:40.365Z,100925.50
2022-09-07T19:17:08.748Z,100910.69
2022-09-07T19:19:35.614Z,100906.94
2022-09-07T19:22:02.514Z,100894.66
2022-09-07T19:24:31.730Z,100896.19
2022-09-07T19:27:00.708Z,100901.31
2022-09-07T19:29:28.374Z,100900.28
2022-09-07T19:31:55.394Z,100896.28
2022-09-07T19:34:23.792Z,100902.47
2022-09-07T19:36:50.567Z,100894.47
2022-09-07T19:39:17.277Z,100879.47
2022-09-07T19:41:44.065Z,100891.16
2022-09-07T19:44:11.025Z,100897.94
2022-09-07T19:46:37.922Z,100901.16
2022-09-07T19:49:04.857Z,100896.31
2022-09-07T19:51:36.679Z,100895.91
2022-09-07T19:54:04.396Z,100898.28
2022-09-07T19:56:31.277Z,100896.78
2022-09-07T19:58:58.086Z,100895.13
2022-09-07T20:01:25.607Z,100891.75
2022-09-07T20:03:56.839Z,100883.69
2022-09-07T20:06:23.724Z,100878.63
2022-09-07T20:08:51.824Z,100876.09
2022-09-07T20:11:18.850Z,100874.66
2022-09-07T20:13:45.778Z,100875.09
2022-09-07T20:16:13.909Z,100870.00
2022-09-07T20:18:41.144Z,100866.03
2022-09-07T20:21:09.921Z,100867.31
2022-09-07T20:23:36.445Z,100868.63
2022-09-07T20:26:05.844Z,100867.97
2022-09-07T20:28:32.962Z,100864.00
2022-09-07T20:30:59.608Z,100855.34
2022-09-07T20:33:26.416Z,100852.16
2022-09-07T20:35:52.980Z,100852.38
2022-09-07T20:38:20.078Z,100848.13
2022-09-07T20:40:53.547Z,100837.34
2022-09-07T20:43:21.667Z,100836.97
2022-09-07T20:45:48.349Z,100850.09
2022-09-07T20:48:15.402Z,100845.03
2022-09-07T20:50:42.397Z,100848.00
2022-09-07T20:53:08.957Z,100849.28
2022-09-07T20:55:35.590Z,100849.69
2022-09-07T20:58:02.204Z,100851.00
2022-09-07T21:00:30.266Z,100853.34
2022-09-07T21:02:56.970Z,100856.31
2022-09-07T21:05:23.506Z,100854.84
2022-09-07T21:07:50.113Z,100846.19
2022-09-07T21:10:16.866Z,100848.53
2022-09-07T21:12:43.347Z,100848.13
2022-09-07T21:15:10.273Z,100848.56
2022-09-07T21:17:38.443Z,100851.75
2022-09-07T21:20:06.014Z,100847.75
2022-09-07T21:22:33.205Z,100850.06
2022-09-07T21:24:59.784Z,100842.28
2022-09-07T21:27:26.366Z,100843.56
2022-09-07T21:29:52.892Z,100838.47
2022-09-07T21:32:19.443Z,100839.75
2022-09-07T21:34:47.397Z,100841.88
2022-09-07T21:37:14.009Z,100845.06
2022-09-07T21:39:40.668Z,100843.38
2022-09-07T21:42:07.338Z,100834.72
2022-09-07T21:44:33.938Z,100835.75
2022-09-07T21:47:00.541Z,100831.56
2022-09-07T21:49:27.194Z,100843.56
2022-09-07T21:51:55.121Z,100842.56
2022-09-07T21:54:21.774Z,100836.38
2022-09-07T21:56:48.386Z,100820.97
2022-09-07T21:59:14.981Z,100820.34
2022-09-07T22:01:41.600Z,100825.22
2022-09-07T22:04:08.304Z,100821.81
2022-09-07T22:06:35.554Z,100832.16
2022-09-07T22:09:04.696Z,100828.81
2022-09-07T22:11:31.296Z,100833.47
2022-09-07T22:13:59.740Z,100835.38
2022-09-07T22:16:26.518Z,100836.41
2022-09-07T22:18:53.546Z,100838.56
2022-09-07T22:21:22.205Z,100850.59
2022-09-07T22:23:50.405Z,100847.84
2022-09-07T22:26:21.228Z,100842.56
2022-09-07T22:28:48.062Z,100845.75
2022-09-07T22:31:17.178Z,100845.31
2022-09-07T22:33:45.200Z,100839.41
2022-09-07T22:36:15.141Z,100839.22
2022-09-07T22:38:42.237Z,100844.06
2022-09-07T22:41:10.132Z,100851.69
2022-09-07T22:43:38.465Z,100840.28
2022-09-07T22:46:05.519Z,100842.38
2022-09-07T22:48:32.367Z,100830.13
2022-09-07T22:51:00.085Z,100824.25
2022-09-07T22:53:27.437Z,100824.66
2022-09-07T22:55:54.786Z,100814.09
2022-09-07T22:58:21.676Z,100824.47
2022-09-07T23:00:50.715Z,100828.47
2022-09-07T23:03:17.915Z,100820.44
2022-09-07T23:05:44.603Z,100819.81
2022-09-07T23:08:11.222Z,100814.75
2022-09-07T23:10:37.795Z,100812.19
2022-09-07T23:13:04.635Z,100810.75
2022-09-07T23:15:31.270Z,100810.94
2022-09-07T23:17:59.246Z,100815.81
2022-09-07T23:20:25.859Z,100801.03
2022-09-07T23:22:52.496Z,100801.66
2022-09-07T23:25:19.373Z,100794.88
2022-09-07T23:27:45.939Z,100787.88
2022-09-07T23:30:13.062Z,100792.56
2022-09-07T23:32:39.620Z,100791.06
2022-09-07T23:35:08.688Z,100783.88
2022-09-07T23:37:35.223Z,100786.19
2022-09-07T23:40:02.186Z,100784.75
2022-09-07T23:42:28.779Z,100784.94
2022-09-07T23:44:55.336Z,100777.75
2022-09-07T23:47:21.941Z,100779.03
2022-09-07T23:49:48.534Z,100781.13
2022-09-07T23:52:16.606Z,100773.13
2022-09-07T23:54:43.146Z,100775.22
2022-09-07T23:57:09.768Z,100776.50
2022-09-07T23:59:36.368Z,100775.22
